Time;durP1;ratioP1;P1;durP2;ratioP2;P2;SDS_P1;SDS_P2;PMS_P1;PMS_P2;Temp;Humidity;BMP_temperature;BMP_pressure;BME280_temperature;BME280_humidity;BME280_pressure;Samples;Min_cycle;Max_cycle;Signal;HPM_P1;HPM_P2
2023/01/30 00:01:45;;;;;;;28.35;13.13;;;;;;;-1.78;100.00;100464.09;5076373;28;20085;-74
2023/01/30 00:04:12;;;;;;;32.35;12.88;;;;;;;-1.82;100.00;100457.72;5075966;28;20028;-74
2023/01/30 00:06:39;;;;;;;22.92;12.57;;;;;;;-1.82;100.00;100446.50;5075523;28;20055;-75
2023/01/30 00:09:04;;;;;;;25.08;12.25;;;;;;;-1.85;100.00;100450.91;5075413;28;20044;-73
2023/01/30 00:11:32;;;;;;;22.00;11.93;;;;;;;-1.84;100.00;100448.91;5074406;28;20046;-76
2023/01/30 00:13:58;;;;;;;19.58;11.40;;;;;;;-1.83;100.00;100436.50;5073721;28;20175;-72
2023/01/30 00:16:24;;;;;;;26.02;12.10;;;;;;;-1.84;100.00;100424.50;5073424;28;20035;-73
2023/01/30 00:18:53;;;;;;;20.23;11.23;;;;;;;-1.81;100.00;100422.91;5075114;28;20021;-73
2023/01/30 00:21:25;;;;;;;24.70;12.00;;;;;;;-1.93;100.00;100424.16;5074701;28;20419;-72
2023/01/30 00:23:50;;;;;;;20.52;10.85;;;;;;;-1.91;100.00;100415.34;5074747;28;20112;-74
2023/01/30 00:26:16;;;;;;;20.83;11.02;;;;;;;-1.86;100.00;100418.53;5074949;28;20107;-73
2023/01/30 00:28:48;;;;;;;24.45;12.23;;;;;;;-1.87;100.00;100413.31;5075234;28;20039;-72
2023/01/30 00:31:14;;;;;;;22.98;12.20;;;;;;;-1.91;100.00;100412.56;5074590;28;20028;-74
2023/01/30 00:34:02;;;;;;;27.05;12.00;;;;;;;-1.96;100.00;100396.16;5074566;28;20029;-75
2023/01/30 00:36:27;;;;;;;23.90;12.63;;;;;;;-2.04;100.00;100398.97;5074479;28;20024;-74
2023/01/30 00:38:56;;;;;;;18.63;11.20;;;;;;;-2.04;100.00;100398.19;5087965;28;20097;-75
2023/01/30 00:41:23;;;;;;;22.02;11.20;;;;;;;-2.04;100.00;100392.56;5094376;28;20465;-74
2023/01/30 00:49:21;;;;;;;21.70;11.10;;;;;;;-2.18;100.00;100368.25;5095798;28;20042;-74
2023/01/30 00:51:47;;;;;;;21.08;11.18;;;;;;;-2.20;100.00;100358.66;5095422;28;20058;-77
2023/01/30 00:54:13;;;;;;;24.88;11.80;;;;;;;-2.27;100.00;100345.50;5095591;28;20081;-74
2023/01/30 00:56:39;;;;;;;20.83;10.95;;;;;;;-2.29;100.00;100347.88;5095199;28;20453;-73
2023/01/30 00:59:04;;;;;;;21.77;11.63;;;;;;;-2.32;100.00;100345.09;5095523;28;20024;-74
2023/01/30 01:01:31;;;;;;;26.25;11.65;;;;;;;-2.39;100.00;100334.72;5095133;28;20024;-75
2023/01/30 01:03:57;;;;;;;23.98;12.85;;;;;;;-2.36;100.00;100342.31;5095375;28;20016;-74
2023/01/30 01:06:23;;;;;;;21.83;11.90;;;;;;;-2.40;100.00;100330.34;5095291;28;20024;-74
2023/01/30 01:08:49;;;;;;;24.38;12.57;;;;;;;-2.39;100.00;100326.31;5094964;28;20024;-74
2023/01/30 01:11:23;;;;;;;26.67;12.05;;;;;;;-2.42;100.00;100324.34;5095032;28;20474;-74
2023/01/30 01:14:00;;;;;;;24.00;11.73;;;;;;;-2.48;100.00;100311.97;5095243;28;20111;-74
2023/01/30 01:16:29;;;;;;;22.75;12.45;;;;;;;-2.48;100.00;100314.75;5094967;28;20377;-74
2023/01/30 01:18:54;;;;;;;27.35;14.13;;;;;;;-2.53;100.00;100310.38;5095265;28;20028;-74
2023/01/30 01:21:20;;;;;;;25.77;12.85;;;;;;;-2.54;100.00;100310.78;5094473;28;20111;-74
2023/01/30 01:24:02;;;;;;;29.52;13.85;;;;;;;-2.58;100.00;100304.41;5077380;28;20043;-75
2023/01/30 01:26:28;;;;;;;27.80;14.20;;;;;;;-2.62;100.00;100301.63;5094833;28;20024;-74
2023/01/30 01:28:58;;;;;;;28.08;13.35;;;;;;;-2.57;100.00;100308.81;5076597;28;20532;-74
2023/01/30 01:31:32;;;;;;;28.95;14.30;;;;;;;-2.55;100.00;100306.41;5093899;28;20024;-73
2023/01/30 01:33:58;;;;;;;26.08;13.93;;;;;;;-2.50;100.00;100290.03;5091711;28;20481;-74
2023/01/30 01:36:24;;;;;;;30.15;14.48;;;;;;;-2.41;100.00;100277.59;5094702;28;20055;-74
2023/01/30 01:38:50;;;;;;;32.55;14.02;;;;;;;-2.36;100.00;100263.97;5072853;28;20133;-74
2023/01/30 01:41:17;;;;;;;31.13;14.50;;;;;;;-2.34;100.00;100278.34;5074380;28;20484;-74
2023/01/30 01:44:04;;;;;;;28.83;13.80;;;;;;;-2.24;100.00;100279.50;5074319;28;20035;-74
2023/01/30 01:46:50;;;;;;;32.70;13.63;;;;;;;-2.15;100.00;100275.06;5073641;28;20033;-74
2023/01/30 01:49:29;;;;;;;30.30;14.00;;;;;;;-2.10;100.00;100268.28;5073121;28;20028;-74
2023/01/30 01:52:07;;;;;;;30.00;14.15;;;;;;;-2.08;100.00;100269.44;5073025;28;20028;-74
2023/01/30 01:54:33;;;;;;;29.38;14.45;;;;;;;-1.96;100.00;100254.19;5072575;28;20109;-73
2023/01/30 01:57:39;;;;;;;31.52;14.55;;;;;;;-1.86;100.00;100250.53;5072010;28;20041;-73
2023/01/30 02:00:11;;;;;;;32.30;15.60;;;;;;;-1.77;100.00;100248.06;5072887;28;20029;-74
2023/01/30 02:02:46;;;;;;;32.45;16.55;;;;;;;-1.72;100.00;100236.44;5073061;28;20081;-74
2023/01/30 02:05:14;;;;;;;39.92;16.67;;;;;;;-1.71;100.00;100226.84;5072599;28;20136;-74
2023/01/30 02:08:17;;;;;;;30.25;16.23;;;;;;;-1.63;100.00;100224.75;5071198;28;20039;-74
2023/01/30 02:11:01;;;;;;;;;;;;;;;-1.58;100.00;100225.13;5073393;28;20020;-74
2023/01/30 02:13:27;;;;;;;32.55;16.23;;;;;;;-1.54;100.00;100216.69;5071683;28;19931;-73
2023/01/30 02:15:57;;;;;;;35.55;15.35;;;;;;;-1.47;100.00;100215.84;5073611;28;20024;-73
2023/01/30 02:18:24;;;;;;;29.15;14.82;;;;;;;-1.50;100.00;100206.22;5055963;28;20040;-74
2023/01/30 02:21:26;;;;;;;29.50;14.57;;;;;;;-1.45;100.00;100205.00;5054855;28;20041;-74
2023/01/30 02:24:22;;;;;;;28.23;14.18;;;;;;;-1.34;100.00;100184.06;4990957;28;20812;-73
2023/01/30 02:27:40;;;;;;;31.42;15.18;;;;;;;-1.36;100.00;100178.09;5072545;28;20032;-73
2023/01/30 02:30:19;;;;;;;28.77;14.20;;;;;;;-1.42;100.00;100176.16;4997953;28;20424;-74
2023/01/30 02:33:06;;;;;;;24.58;13.40;;;;;;;-1.35;100.00;100164.88;5071737;28;20162;-72
2023/01/30 02:36:21;;;;;;;27.95;14.35;;;;;;;-1.37;100.00;100150.50;5072952;28;20068;-74
2023/01/30 02:39:13;;;;;;;30.85;14.02;;;;;;;-1.29;100.00;100140.78;5079987;28;20078;-73
2023/01/30 02:41:51;;;;;;;27.95;14.50;;;;;;;-1.30;100.00;100147.59;5093921;28;20078;-73
2023/01/30 02:44:51;;;;;;;26.05;13.15;;;;;;;-1.36;100.00;100136.03;5079143;28;20024;-74
2023/01/30 02:47:24;;;;;;;28.33;14.88;;;;;;;-1.34;100.00;100122.44;5098001;28;20409;-74
2023/01/30 02:49:59;;;;;;;28.50;13.90;;;;;;;-1.35;100.00;100118.03;5079833;28;20457;-74
2023/01/30 02:52:26;;;;;;;27.75;13.32;;;;;;;-1.34;100.00;100113.22;5063456;28;20112;-74
2023/01/30 02:54:51;;;;;;;26.45;14.95;;;;;;;-1.31;100.00;100104.78;5079550;28;20515;-72
2023/01/30 02:57:21;;;;;;;30.38;13.93;;;;;;;-1.28;100.00;100112.38;5097578;28;20028;-74
2023/01/30 02:59:54;;;;;;;28.23;15.43;;;;;;;-1.19;100.00;100109.06;5079704;28;20082;-73
2023/01/30 03:02:49;;;;;;;23.50;13.80;;;;;;;-1.13;100.00;100094.16;5079766;28;20032;-73
2023/01/30 03:05:32;;;;;;;27.63;14.00;;;;;;;-1.18;100.00;100074.22;5097182;28;20407;-73
2023/01/30 03:08:17;;;;;;;26.88;14.20;;;;;;;-1.23;100.00;100067.06;5079452;28;20453;-74
2023/01/30 03:11:03;;;;;;;26.73;14.52;;;;;;;-1.24;100.00;100067.47;5097766;28;20066;-73
2023/01/30 03:13:55;;;;;;;25.88;13.82;;;;;;;-1.29;100.00;100070.72;5079205;28;20393;-74
2023/01/30 03:16:37;;;;;;;29.65;14.10;;;;;;;-1.26;100.00;100075.53;5079789;28;20036;-73
2023/01/30 03:19:05;;;;;;;25.98;13.23;;;;;;;-1.17;100.00;100062.59;5097482;28;20028;-73
2023/01/30 03:21:32;;;;;;;26.70;13.48;;;;;;;-1.07;100.00;100068.47;5079348;28;20039;-74
2023/01/30 03:24:00;;;;;;;27.02;14.40;;;;;;;-1.05;100.00;100074.44;5079102;28;20089;-74
2023/01/30 03:26:29;;;;;;;27.85;14.57;;;;;;;-1.02;100.00;100060.41;5096969;28;20024;-73
2023/01/30 03:28:56;;;;;;;27.33;13.25;;;;;;;-0.96;100.00;100050.28;5097286;28;20540;-74
2023/01/30 03:31:21;;;;;;;24.83;13.68;;;;;;;-0.96;100.00;100041.88;5078758;28;20152;-73
2023/01/30 03:33:46;;;;;;;29.52;13.82;;;;;;;-0.97;100.00;100045.13;5096960;28;20416;-73
2023/01/30 03:36:12;;;;;;;23.50;13.75;;;;;;;-0.89;100.00;100035.38;5096474;28;20040;-74
2023/01/30 03:38:39;;;;;;;27.05;13.15;;;;;;;-0.81;100.00;100029.25;5058393;28;20498;-73
2023/01/30 03:41:06;;;;;;;25.45;12.80;;;;;;;-0.78;100.00;100020.00;5077278;28;20043;-74
2023/01/30 03:43:33;;;;;;;22.75;12.52;;;;;;;-0.78;100.00;100022.81;5076751;28;20119;-74
2023/01/30 03:45:59;;;;;;;28.00;12.40;;;;;;;-0.85;100.00;100027.72;5076317;28;20021;-74
2023/01/30 03:48:25;;;;;;;24.88;12.70;;;;;;;-0.90;100.00;100019.78;5076375;28;20031;-73
2023/01/30 03:50:51;;;;;;;24.80;13.02;;;;;;;-0.88;100.00;100003.34;5075147;28;20025;-74
2023/01/30 03:53:18;;;;;;;25.58;13.35;;;;;;;-0.83;100.00;100000.06;5076285;28;20042;-74
2023/01/30 03:55:44;;;;;;;24.98;13.23;;;;;;;-0.86;100.00;99998.06;5075005;28;20576;-74
2023/01/30 03:58:10;;;;;;;23.15;11.70;;;;;;;-0.80;100.00;100002.00;5076454;28;20035;-75
2023/01/30 04:00:43;;;;;;;25.10;11.73;;;;;;;-0.75;100.00;100001.53;5076381;28;20016;-74
2023/01/30 04:03:10;;;;;;;23.67;12.82;;;;;;;-0.64;100.00;99996.56;5076259;28;20032;-74
2023/01/30 04:05:36;;;;;;;19.92;12.27;;;;;;;-0.61;100.00;99998.50;5075829;28;20489;-74
2023/01/30 04:08:02;;;;;;;24.55;12.02;;;;;;;-0.67;100.00;99991.00;5075939;28;20035;-74
2023/01/30 04:10:27;;;;;;;21.05;10.43;;;;;;;-0.67;100.00;99985.41;5076226;28;20032;-74
2023/01/30 04:12:54;;;;;;;17.92;11.27;;;;;;;-0.63;100.00;99978.50;5076253;28;20013;-73
2023/01/30 04:15:20;;;;;;;18.42;10.23;;;;;;;-0.71;100.00;99977.81;5076248;28;20079;-74
2023/01/30 04:17:46;;;;;;;15.05;8.50;;;;;;;-0.63;100.00;99961.69;5075800;28;20472;-74
2023/01/30 04:20:13;;;;;;;16.02;9.63;;;;;;;-0.67;100.00;99954.53;5075810;28;20027;-74
2023/01/30 04:22:39;;;;;;;17.77;9.82;;;;;;;-0.62;100.00;99940.84;5075648;28;20032;-73
2023/01/30 04:25:07;;;;;;;29.17;10.52;;;;;;;-0.64;100.00;99923.63;5075768;28;20032;-74
2023/01/30 04:27:33;;;;;;;20.42;10.82;;;;;;;-0.64;100.00;99906.00;5075855;28;20103;-73
2023/01/30 04:29:58;;;;;;;15.40;10.10;;;;;;;-0.72;100.00;99903.28;5075508;28;20048;-73
2023/01/30 04:32:25;;;;;;;15.63;9.35;;;;;;;-0.76;100.00;99904.56;5075473;28;20060;-74
2023/01/30 04:34:50;;;;;;;19.02;9.55;;;;;;;-0.79;100.00;99880.19;5075768;28;20040;-74
2023/01/30 04:37:17;;;;;;;16.80;9.50;;;;;;;-0.80;100.00;99868.19;5074014;28;20385;-73
2023/01/30 04:39:43;;;;;;;16.05;9.15;;;;;;;-0.78;100.00;99878.97;5076966;28;20056;-74
2023/01/30 04:42:09;;;;;;;15.40;8.95;;;;;;;-0.75;100.00;99878.13;5095876;28;20036;-74
2023/01/30 04:44:34;;;;;;;14.95;8.52;;;;;;;-0.73;100.00;99861.66;5095897;28;20027;-74
2023/01/30 04:46:59;;;;;;;18.17;9.90;;;;;;;-0.62;100.00;99864.28;5095571;28;20449;-74
2023/01/30 04:49:25;;;;;;;21.67;10.13;;;;;;;-0.61;100.00;99841.41;5095421;28;20113;-73
2023/01/30 04:51:50;;;;;;;16.15;10.40;;;;;;;-0.50;100.00;99841.22;5095371;28;20067;-74
2023/01/30 04:54:24;;;;;;;17.85;10.50;;;;;;;-0.55;100.00;99838.91;5095524;28;20049;-74
2023/01/30 04:56:50;;;;;;;16.63;9.48;;;;;;;-0.56;100.00;99823.28;5095204;28;20024;-74
2023/01/30 04:59:17;;;;;;;17.70;9.95;;;;;;;-0.49;100.00;99821.16;5095490;28;20429;-75
2023/01/30 05:01:43;;;;;;;15.48;9.15;;;;;;;-0.45;100.00;99815.47;5092851;28;20101;-73
2023/01/30 05:04:10;;;;;;;20.08;9.93;;;;;;;-0.46;100.00;99806.25;5062128;28;20546;-74
2023/01/30 05:06:35;;;;;;;21.42;9.70;;;;;;;-0.40;100.00;99803.75;5077214;28;20039;-73
2023/01/30 05:09:03;;;;;;;17.75;10.45;;;;;;;-0.42;100.00;99806.97;5094388;28;20032;-73
2023/01/30 05:11:29;;;;;;;15.65;9.75;;;;;;;-0.34;100.00;99816.06;5077177;28;20036;-75
2023/01/30 05:13:56;;;;;;;18.30;10.82;;;;;;;-0.41;100.00;99808.56;5077049;28;20388;-74
2023/01/30 05:16:23;;;;;;;22.00;12.02;;;;;;;-0.42;100.00;99806.19;5094795;28;20035;-75
2023/01/30 05:18:49;;;;;;;17.25;10.07;;;;;;;-0.35;100.00;99808.84;5076356;28;20389;-76
2023/01/30 05:21:18;;;;;;;20.25;10.50;;;;;;;-0.37;100.00;99798.03;5095151;28;20053;-76
2023/01/30 05:23:52;;;;;;;21.17;11.50;;;;;;;-0.47;100.00;99801.84;5095057;28;20063;-74
2023/01/30 05:26:18;;;;;;;19.42;10.60;;;;;;;-0.46;100.00;99794.22;5094877;28;20048;-75
2023/01/30 05:28:56;;;;;;;21.00;10.23;;;;;;;-0.47;100.00;99796.25;5093939;28;20071;-75
2023/01/30 05:31:23;;;;;;;20.40;10.50;;;;;;;-0.45;100.00;99790.22;5094670;28;20036;-76
2023/01/30 05:33:52;;;;;;;21.30;11.20;;;;;;;-0.41;100.00;99786.09;5076651;28;20039;-77
2023/01/30 05:36:19;;;;;;;17.40;10.10;;;;;;;-0.47;100.00;99773.78;5076835;28;20031;-75
2023/01/30 05:38:46;;;;;;;21.50;11.25;;;;;;;-0.51;100.00;99773.06;5094381;28;20125;-75
2023/01/30 05:41:14;;;;;;;18.30;10.25;;;;;;;-0.51;100.00;99778.69;5092112;28;20043;-76
2023/01/30 05:43:40;;;;;;;18.88;10.82;;;;;;;-0.52;100.00;99773.53;5076307;28;20072;-75
2023/01/30 05:46:08;;;;;;;21.90;10.55;;;;;;;-0.52;100.00;99768.69;5076275;28;20048;-78
2023/01/30 05:48:35;;;;;;;21.05;11.45;;;;;;;-0.61;100.00;99765.66;5076542;28;20032;-80
2023/01/30 05:51:02;;;;;;;18.45;10.90;;;;;;;-0.65;100.00;99756.53;5094593;28;20024;-78
2023/01/30 05:53:30;;;;;;;21.48;12.95;;;;;;;-0.58;100.00;99755.59;5094340;28;20112;-77
2023/01/30 05:55:57;;;;;;;18.23;10.15;;;;;;;-0.57;100.00;99749.53;5076252;28;20460;-78
2023/01/30 05:58:24;;;;;;;17.92;10.93;;;;;;;-0.59;100.00;99745.59;5094004;28;20032;-74
2023/01/30 06:00:58;;;;;;;27.10;11.30;;;;;;;-0.60;100.00;99730.78;5095011;28;20038;-79
2023/01/30 06:03:38;;;;;;;18.80;9.90;;;;;;;-0.57;100.00;99715.88;5077549;28;20077;-79
2023/01/30 06:06:05;;;;;;;21.48;10.13;;;;;;;-0.57;100.00;99731.94;5076045;28;20020;-77
2023/01/30 06:08:31;;;;;;;16.23;9.15;;;;;;;-0.53;100.00;99729.84;5076152;28;20036;-77
2023/01/30 06:11:11;;;;;;;18.35;10.77;;;;;;;-0.39;100.00;99713.50;5093874;28;20024;-78
2023/01/30 06:13:37;;;;;;;15.63;9.48;;;;;;;-0.41;100.00;99715.16;5076777;28;20040;-78
2023/01/30 06:16:04;;;;;;;20.77;9.90;;;;;;;-0.49;100.00;99711.72;5093660;28;20035;-77
2023/01/30 06:18:29;;;;;;;23.08;9.35;;;;;;;-0.40;100.00;99709.13;5092802;28;20464;-79
2023/01/30 06:20:54;;;;;;;16.95;9.23;;;;;;;-0.27;100.00;99714.84;5093546;28;20047;-79
2023/01/30 06:23:27;;;;;;;18.83;9.18;;;;;;;-0.16;100.00;99714.63;5092885;28;20098;-77
2023/01/30 06:25:54;;;;;;;19.58;9.60;;;;;;;-0.16;100.00;99718.22;5074315;28;20062;-79
2023/01/30 06:28:20;;;;;;;28.38;10.52;;;;;;;-0.14;100.00;99712.19;5094053;28;20110;-81
2023/01/30 06:30:50;;;;;;;16.50;9.43;;;;;;;-0.05;100.00;99712.38;5075911;28;20098;-77
2023/01/30 06:33:16;;;;;;;18.92;10.20;;;;;;;-0.02;100.00;99719.91;5076421;28;20032;-79
2023/01/30 06:35:43;;;;;;;17.30;9.07;;;;;;;-0.03;100.00;99709.94;5076121;28;20103;-78
2023/01/30 06:38:10;;;;;;;20.70;9.82;;;;;;;-0.01;100.00;99702.66;5055656;28;20110;-80
2023/01/30 06:40:40;;;;;;;24.08;11.05;;;;;;;0.02;100.00;99689.78;5073323;28;20028;-70
2023/01/30 06:43:05;;;;;;;20.48;9.68;;;;;;;-0.02;100.00;99678.59;5071582;28;20029;-70
2023/01/30 06:45:31;;;;;;;16.55;9.68;;;;;;;0.02;100.00;99667.31;5071060;28;20031;-70
2023/01/30 06:47:56;;;;;;;15.70;8.63;;;;;;;0.02;100.00;99679.31;5071361;28;20020;-69
2023/01/30 06:50:24;;;;;;;17.10;9.05;;;;;;;0.07;100.00;99672.41;5071215;28;20426;-70
2023/01/30 06:52:51;;;;;;;16.42;9.57;;;;;;;0.14;100.00;99675.03;5071419;28;20503;-70
2023/01/30 06:55:18;;;;;;;15.70;10.02;;;;;;;0.25;100.00;99672.75;5071312;28;20481;-71
2023/01/30 06:57:44;;;;;;;15.18;8.98;;;;;;;0.28;100.00;99663.44;5071119;28;20028;-70
2023/01/30 07:00:13;;;;;;;18.10;9.02;;;;;;;0.25;100.00;99675.56;5073303;28;20029;-72
2023/01/30 07:02:39;;;;;;;17.88;9.43;;;;;;;0.19;100.00;99677.31;5073329;28;20032;-70
2023/01/30 07:05:06;;;;;;;17.15;9.20;;;;;;;0.21;100.00;99674.88;5072932;28;20031;-71
2023/01/30 07:07:35;;;;;;;17.70;9.63;;;;;;;0.25;100.00;99653.09;5068323;28;20060;-73
2023/01/30 07:10:03;;;;;;;24.73;9.57;;;;;;;0.26;100.00;99649.06;5065277;28;20035;-69
2023/01/30 07:12:30;;;;;;;22.33;10.38;;;;;;;0.29;100.00;99644.56;5072115;28;20116;-70
2023/01/30 07:14:56;;;;;;;17.73;8.70;;;;;;;0.47;100.00;99654.13;5066379;28;20039;-70
2023/01/30 07:17:24;;;;;;;18.98;9.82;;;;;;;0.73;100.00;99643.81;5068904;28;20389;-71
2023/01/30 07:19:50;;;;;;;16.75;9.18;;;;;;;0.94;100.00;99657.31;5077110;28;20205;-71
2023/01/30 07:22:17;;;;;;;15.00;9.00;;;;;;;0.92;100.00;99651.34;5072720;28;20044;-71
2023/01/30 07:24:43;;;;;;;15.50;9.55;;;;;;;0.68;100.00;99655.59;5072961;28;20031;-72
2023/01/30 07:27:10;;;;;;;16.83;9.70;;;;;;;0.51;100.00;99643.63;5073122;28;20092;-73
2023/01/30 07:29:36;;;;;;;23.15;11.23;;;;;;;0.41;100.00;99650.28;5073609;28;20037;-68
2023/01/30 07:32:14;;;;;;;18.02;9.85;;;;;;;0.45;100.00;99658.63;5075245;28;20122;-70
2023/01/30 07:34:40;;;;;;;21.20;11.25;;;;;;;0.44;100.00;99652.22;5060083;28;20068;-72
2023/01/30 07:37:07;;;;;;;23.55;10.77;;;;;;;0.49;100.00;99659.31;5076456;28;20036;-73
2023/01/30 07:39:32;;;;;;;17.95;10.00;;;;;;;0.55;100.00;99657.56;5075068;28;20056;-74
2023/01/30 07:42:00;;;;;;;17.20;9.60;;;;;;;0.52;100.00;99650.00;5076333;28;20028;-73
2023/01/30 07:44:27;;;;;;;19.52;10.02;;;;;;;0.57;100.00;99632.59;5041808;28;20500;-73
2023/01/30 07:46:52;;;;;;;15.23;9.60;;;;;;;0.63;100.00;99630.84;5069188;28;20024;-74
2023/01/30 07:49:29;;;;;;;19.33;11.10;;;;;;;0.67;100.00;99630.75;5056785;28;20040;-71
2023/01/30 07:51:55;;;;;;;18.85;11.07;;;;;;;0.57;100.00;99619.34;5070266;28;20033;-70
2023/01/30 07:54:22;;;;;;;19.30;11.20;;;;;;;0.55;100.00;99627.44;5072039;28;20036;-67
2023/01/30 07:56:48;;;;;;;20.05;11.57;;;;;;;0.32;100.00;99624.81;5063296;28;20362;-71
2023/01/30 07:59:15;;;;;;;21.10;11.13;;;;;;;0.43;100.00;99636.56;5068008;28;20046;-70
2023/01/30 08:01:41;;;;;;;21.33;11.73;;;;;;;0.46;100.00;99643.34;5074692;28;20040;-69
2023/01/30 08:04:09;;;;;;;46.78;14.10;;;;;;;0.34;100.00;99632.81;5076157;28;20020;-69
2023/01/30 08:06:38;;;;;;;23.40;12.02;;;;;;;0.30;100.00;99632.91;5076245;28;20055;-68
2023/01/30 08:09:05;;;;;;;31.33;12.45;;;;;;;0.37;100.00;99623.50;5075878;28;20108;-68
2023/01/30 08:11:31;;;;;;;23.77;11.95;;;;;;;0.44;100.00;99626.91;5074776;28;20420;-69
2023/01/30 08:13:57;;;;;;;26.88;11.68;;;;;;;0.39;100.00;99618.22;5074127;28;20048;-67
2023/01/30 08:16:23;;;;;;;21.35;11.45;;;;;;;0.37;100.00;99615.84;5075993;28;20024;-70
2023/01/30 08:18:51;;;;;;;20.67;10.68;;;;;;;0.35;100.00;99609.91;5075193;28;20477;-70
2023/01/30 08:21:19;;;;;;;19.88;11.55;;;;;;;0.41;100.00;99608.16;5075278;28;20028;-70
2023/01/30 08:23:48;;;;;;;27.08;11.75;;;;;;;0.32;100.00;99593.13;5074365;28;20111;-72
2023/01/30 08:26:15;;;;;;;23.27;11.10;;;;;;;0.41;100.00;99598.91;5074219;28;20067;-73
2023/01/30 08:28:40;;;;;;;22.70;11.23;;;;;;;0.51;100.00;99593.03;5076007;28;20024;-72
2023/01/30 08:31:12;;;;;;;18.85;11.27;;;;;;;0.61;100.00;99586.31;5074617;28;20040;-69
2023/01/30 08:33:37;;;;;;;24.77;11.77;;;;;;;0.69;100.00;99580.50;5074413;28;20052;-68
2023/01/30 08:36:04;;;;;;;21.73;12.00;;;;;;;0.67;100.00;99577.34;5075239;28;20024;-70
2023/01/30 08:38:31;;;;;;;21.75;11.68;;;;;;;0.71;100.00;99569.63;5085431;28;20052;-69
2023/01/30 08:40:59;;;;;;;22.98;11.35;;;;;;;0.86;100.00;99562.34;5093902;28;20040;-67
2023/01/30 08:43:25;;;;;;;18.15;9.75;;;;;;;0.95;100.00;99566.09;5095817;28;20061;-68
2023/01/30 08:46:03;;;;;;;24.75;11.55;;;;;;;1.07;100.00;99564.53;5060651;28;20036;-72
2023/01/30 08:48:31;;;;;;;19.38;11.02;;;;;;;1.15;100.00;99557.50;5095455;28;20377;-74
2023/01/30 08:50:58;;;;;;;18.83;10.02;;;;;;;1.22;100.00;99557.25;5095569;28;20024;-75
2023/01/30 08:53:24;;;;;;;18.88;10.00;;;;;;;1.20;100.00;99553.34;5095046;28;20042;-79
2023/01/30 08:55:51;;;;;;;17.95;11.25;;;;;;;1.22;100.00;99540.38;5094365;28;20043;-75
2023/01/30 08:58:17;;;;;;;23.88;10.50;;;;;;;1.20;100.00;99531.63;5060876;28;20035;-73
2023/01/30 09:00:43;;;;;;;21.92;10.25;;;;;;;1.12;100.00;99541.47;5077621;28;20032;-70
2023/01/30 09:03:09;;;;;;;19.50;10.07;;;;;;;1.13;100.00;99545.09;5092653;28;20409;-71
2023/01/30 09:05:34;;;;;;;22.33;9.88;;;;;;;1.15;100.00;99557.50;5076916;28;20024;-72
2023/01/30 09:08:02;;;;;;;20.00;10.88;;;;;;;1.08;100.00;99552.06;5093049;28;20039;-71
2023/01/30 09:10:29;;;;;;;19.10;9.93;;;;;;;1.20;100.00;99544.88;5094991;28;20024;-71
2023/01/30 09:12:56;;;;;;;18.65;10.73;;;;;;;1.33;100.00;99540.06;5094808;28;20361;-72
2023/01/30 09:15:22;;;;;;;26.98;11.05;;;;;;;1.40;100.00;99546.25;5095044;28;20032;-71
2023/01/30 09:17:47;;;;;;;16.60;9.95;;;;;;;1.37;100.00;99549.19;5094886;28;20154;-70
2023/01/30 09:20:14;;;;;;;16.00;9.65;;;;;;;1.41;100.00;99547.81;5094909;28;20449;-69
2023/01/30 09:22:39;;;;;;;16.40;9.05;;;;;;;1.44;100.00;99540.53;5094562;28;20487;-70
2023/01/30 09:25:07;;;;;;;15.52;8.90;;;;;;;1.34;100.00;99534.00;5076719;28;20032;-70
2023/01/30 09:27:33;;;;;;;21.92;9.30;;;;;;;1.29;100.00;99542.19;5094952;28;20027;-73
2023/01/30 09:29:59;;;;;;;19.00;8.88;;;;;;;1.16;100.00;99533.72;5092739;28;20039;-74
2023/01/30 09:32:31;;;;;;;14.73;9.13;;;;;;;1.15;100.00;99523.72;5092289;28;20048;-71
2023/01/30 09:34:59;;;;;;;17.42;8.98;;;;;;;1.29;100.00;99545.00;5094381;28;20027;-73
2023/01/30 09:37:25;;;;;;;14.43;9.23;;;;;;;1.33;100.00;99535.22;5094310;28;20078;-72
2023/01/30 09:39:53;;;;;;;20.92;10.55;;;;;;;1.39;100.00;99533.44;5094573;28;20044;-73
2023/01/30 09:42:55;;;;;;;14.63;8.32;;;;;;;1.47;100.00;99529.16;5094620;28;20031;-75
2023/01/30 09:45:41;;;;;;;37.67;11.65;;;;;;;1.41;100.00;99516.88;5094149;28;20507;-75
2023/01/30 09:48:33;;;;;;;16.73;10.10;;;;;;;1.49;100.00;99523.06;5076486;28;20024;-71
2023/01/30 09:50:59;;;;;;;;;;;;;;;1.51;100.00;99516.97;5082343;28;20035;-73
2023/01/30 09:53:31;;;;;;;15.88;9.10;;;;;;;1.54;100.00;99516.88;5093545;28;19914;-70
2023/01/30 09:55:58;;;;;;;15.93;9.48;;;;;;;1.63;100.00;99507.75;5093983;28;20039;-75
2023/01/30 09:58:59;;;;;;;17.45;10.05;;;;;;;1.69;100.00;99511.59;5076323;28;20534;-71
2023/01/30 10:01:55;;;;;;;20.27;9.45;;;;;;;1.70;100.00;99511.09;5076412;28;20073;-76
2023/01/30 10:04:39;;;;;;;39.60;12.15;;;;;;;1.59;100.00;99504.25;5092540;28;20114;-69
2023/01/30 10:07:14;;;;;;;18.38;10.18;;;;;;;1.59;100.00;99504.25;5076282;28;20464;-73
2023/01/30 10:10:02;;;;;;;23.10;10.82;;;;;;;1.44;100.00;99507.53;5093965;28;20032;-70
2023/01/30 10:13:06;;;;;;;25.40;11.13;;;;;;;1.24;100.00;99509.78;5075417;28;20404;-75
2023/01/30 10:15:59;;;;;;;21.83;11.00;;;;;;;0.95;100.00;99511.88;5094030;28;20040;-71
2023/01/30 10:19:01;;;;;;;19.98;10.70;;;;;;;0.76;100.00;99505.19;5084886;28;20025;-69
2023/01/30 10:21:46;;;;;;;22.42;12.20;;;;;;;0.57;100.00;99506.13;5073691;28;20028;-70
2023/01/30 10:24:42;;;;;;;24.58;12.55;;;;;;;0.60;100.00;99494.81;5073372;28;20455;-69
2023/01/30 10:27:29;;;;;;;26.73;13.70;;;;;;;0.56;100.00;99499.75;5073279;28;20423;-71
2023/01/30 10:29:58;;;;;;;25.77;12.00;;;;;;;0.60;100.00;99480.75;5054858;28;20056;-69
2023/01/30 10:32:30;;;;;;;21.17;11.38;;;;;;;0.57;100.00;99487.25;5054941;28;20052;-70
2023/01/30 10:35:13;;;;;;;24.98;12.30;;;;;;;0.68;100.00;99486.16;5073629;28;20028;-70
2023/01/30 10:38:11;;;;;;;29.80;15.30;;;;;;;0.74;100.00;99481.56;5057261;28;20039;-71
2023/01/30 10:40:41;;;;;;;31.70;13.20;;;;;;;0.39;100.00;99474.94;5073058;28;20024;-77
2023/01/30 10:43:46;;;;;;;22.27;10.98;;;;;;;0.39;100.00;99472.91;5055526;28;20020;-74
2023/01/30 10:46:34;;;;;;;29.50;13.45;;;;;;;0.19;100.00;99469.44;5073512;28;20021;-74
2023/01/30 10:49:31;;;;;;;25.15;10.95;;;;;;;0.18;100.00;99457.44;5073167;28;20409;-73
2023/01/30 10:52:26;;;;;;;27.80;12.60;;;;;;;0.26;100.00;99462.88;5073059;28;20465;-72
2023/01/30 10:55:11;;;;;;;22.60;10.93;;;;;;;0.33;100.00;99460.63;5073570;28;20111;-72
2023/01/30 10:58:05;;;;;;;23.77;11.93;;;;;;;0.41;100.00;99466.84;5073179;28;20029;-74
2023/01/30 11:01:00;;;;;;;24.17;11.90;;;;;;;0.55;100.00;99463.63;5072860;28;20028;-68
2023/01/30 11:03:46;;;;;;;37.97;12.85;;;;;;;0.81;100.00;99461.69;5055413;28;20033;-67
2023/01/30 11:06:29;;;;;;;21.92;11.15;;;;;;;0.88;100.00;99453.00;5077254;28;20048;-68
2023/01/30 11:09:16;;;;;;;16.50;9.73;;;;;;;0.99;100.00;99448.66;5058441;28;20362;-69
2023/01/30 11:12:03;;;;;;;23.88;11.38;;;;;;;1.19;100.00;99442.03;5076006;28;20021;-67
2023/01/30 11:14:52;;;;;;;27.55;10.95;;;;;;;1.26;100.00;99442.56;5057704;28;20047;-70
2023/01/30 11:17:30;;;;;;;25.10;10.85;;;;;;;1.33;100.00;99428.28;5075171;28;20481;-73
2023/01/30 11:19:57;;;;;;;32.42;10.90;;;;;;;1.41;100.00;99421.19;5059333;28;20030;-67
2023/01/30 11:22:28;;;;;;;19.92;10.70;;;;;;;1.30;100.00;99437.63;5058377;28;20056;-69
2023/01/30 11:25:12;;;;;;;21.42;9.40;;;;;;;1.33;100.00;99424.69;5059482;28;20032;-74
2023/01/30 11:27:42;;;;;;;19.92;10.63;;;;;;;1.26;100.00;99419.28;5076494;28;20055;-73
2023/01/30 11:30:20;;;;;;;32.35;10.77;;;;;;;1.22;100.00;99418.59;5059341;28;20115;-74
2023/01/30 11:33:10;;;;;;;19.02;8.63;;;;;;;1.33;100.00;99408.59;5058990;28;20033;-73
2023/01/30 11:35:56;;;;;;;33.40;10.70;;;;;;;1.56;100.00;99404.59;5076461;28;20060;-74
2023/01/30 11:38:27;;;;;;;26.60;11.88;;;;;;;1.59;100.00;99400.91;5075517;28;20055;-74
2023/01/30 11:41:04;;;;;;;19.73;9.85;;;;;;;1.63;100.00;99400.75;5076584;28;20032;-73